createdAt,value
2023-01-02T00:02:06.820Z,100362.72
2023-01-02T00:07:08.287Z,100364.94
2023-01-02T00:17:20.588Z,100359.28
2023-01-02T00:22:21.940Z,100348.88
2023-01-02T00:27:23.279Z,100339.06
2023-01-02T00:32:24.671Z,100337.94
2023-01-02T00:37:26.051Z,100321.50
2023-01-02T00:42:27.437Z,100319.56
2023-01-02T00:47:28.781Z,100325.78
2023-01-02T00:52:30.144Z,100320.59
2023-01-02T00:57:31.543Z,100311.22
2023-01-02T01:02:33.277Z,100305.63
2023-01-02T01:07:34.728Z,100311.66
2023-01-02T01:12:36.072Z,100301.50
2023-01-02T01:17:37.437Z,100298.56
2023-01-02T01:22:38.821Z,100293.88
2023-01-02T01:27:40.216Z,100284.19
2023-01-02T01:32:41.635Z,100302.38
2023-01-02T01:37:43.149Z,100294.13
2023-01-02T01:42:44.507Z,100294.00
2023-01-02T01:47:55.009Z,100310.91
2023-01-02T01:53:08.641Z,100308.06
2023-01-02T01:58:19.085Z,100304.19
2023-01-02T02:03:24.025Z,100305.28
2023-01-02T02:08:56.541Z,100311.56
2023-01-02T02:13:59.881Z,100302.28
2023-01-02T02:19:49.253Z,100300.19
2023-01-02T02:24:53.410Z,100293.78
2023-01-02T02:30:16.797Z,100293.78
2023-01-02T02:35:49.666Z,100290.81
2023-01-02T02:41:14.309Z,100289.75
2023-01-02T02:46:22.316Z,100280.34
2023-01-02T02:51:35.366Z,100278.44
2023-01-02T02:56:36.820Z,100268.41
2023-01-02T03:01:38.790Z,100268.56
2023-01-02T03:07:21.733Z,100260.13
2023-01-02T03:13:00.741Z,100255.91
2023-01-02T03:18:04.845Z,100248.78
2023-01-02T03:23:13.277Z,100245.38
2023-01-02T03:28:18.195Z,100245.94
2023-01-02T03:33:29.801Z,100250.06
2023-01-02T03:38:36.626Z,100237.34
2023-01-02T03:43:41.380Z,100229.84
2023-01-02T03:48:45.444Z,100232.69
2023-01-02T03:53:49.992Z,100249.59
2023-01-02T03:58:58.481Z,100260.53
2023-01-02T04:04:10.687Z,100268.72
2023-01-02T04:09:26.103Z,100271.72
2023-01-02T04:14:47.902Z,100263.56
2023-01-02T04:19:54.433Z,100262.09
2023-01-02T04:25:09.897Z,100257.91
2023-01-02T04:30:11.430Z,100270.91
2023-01-02T04:35:20.281Z,100273.81
2023-01-02T04:40:30.789Z,100270.25
2023-01-02T04:45:32.141Z,100285.34
2023-01-02T04:50:33.511Z,100297.31
2023-01-02T04:55:35.004Z,100306.25
2023-01-02T05:00:36.424Z,100294.63
2023-01-02T05:05:37.782Z,100301.88
2023-01-02T05:10:39.205Z,100301.41
2023-01-02T05:15:40.641Z,100309.97
2023-01-02T05:20:41.979Z,100321.38
2023-01-02T05:25:43.312Z,100304.22
2023-01-02T05:30:44.787Z,100314.13
2023-01-02T05:35:46.163Z,100315.81
2023-01-02T05:40:47.511Z,100318.34
2023-01-02T05:45:48.854Z,100326.41
2023-01-02T05:50:50.421Z,100333.63
2023-01-02T05:55:51.766Z,100336.56
2023-01-02T06:00:53.107Z,100339.03
2023-01-02T06:05:54.446Z,100341.19
2023-01-02T06:10:55.865Z,100339.78
2023-01-02T06:15:59.206Z,100324.63
2023-01-02T06:21:11.488Z,100330.03
2023-01-02T06:26:15.851Z,100334.94
2023-01-02T06:31:18.831Z,100347.50
2023-01-02T06:36:20.377Z,100351.84
2023-01-02T06:41:21.807Z,100342.41
2023-01-02T06:46:23.864Z,100350.66
2023-01-02T06:51:25.249Z,100344.44
2023-01-02T06:56:26.614Z,100338.47
2023-01-02T07:01:29.897Z,100359.22
2023-01-02T07:06:31.402Z,100341.09
2023-01-02T07:11:32.974Z,100334.97
2023-01-02T07:16:34.500Z,100332.72
2023-01-02T07:21:35.907Z,100320.75
2023-01-02T07:26:37.280Z,100315.00
2023-01-02T07:31:38.701Z,100336.63
2023-01-02T07:36:40.055Z,100341.72
2023-01-02T07:41:41.448Z,100327.78
2023-01-02T07:46:42.883Z,100328.78
2023-01-02T07:51:44.401Z,100326.44
2023-01-02T07:56:45.873Z,100336.06
2023-01-02T08:01:50.120Z,100346.94
2023-01-02T08:06:51.648Z,100356.78
2023-01-02T08:11:53.755Z,100357.94
2023-01-02T08:16:55.310Z,100374.66
2023-01-02T08:21:56.853Z,100375.50
2023-01-02T08:26:58.405Z,100371.03
2023-01-02T08:32:00.105Z,100367.66
2023-01-02T08:37:01.627Z,100389.75
2023-01-02T08:42:03.405Z,100415.94
2023-01-02T08:47:05.629Z,100409.16
2023-01-02T08:52:07.342Z,100410.25
2023-01-02T08:57:08.946Z,100411.34
2023-01-02T09:02:14.970Z,100418.22
2023-01-02T09:07:17.626Z,100424.94
2023-01-02T09:12:19.115Z,100433.75
2023-01-02T09:17:20.674Z,100437.34
2023-01-02T09:22:22.238Z,100442.16
2023-01-02T09:27:23.828Z,100448.47
2023-01-02T09:32:25.511Z,100467.59
2023-01-02T09:37:28.524Z,100468.03
2023-01-02T09:42:32.319Z,100468.28
2023-01-02T09:47:36.472Z,100471.94
2023-01-02T09:52:43.006Z,100466.81
2023-01-02T09:58:16.720Z,100481.81
2023-01-02T10:03:45.110Z,100487.88
2023-01-02T10:08:52.503Z,100492.69
2023-01-02T10:19:38.724Z,100495.53
2023-01-02T10:30:48.074Z,100491.59
2023-01-02T10:35:55.505Z,100487.31
2023-01-02T10:40:56.949Z,100490.06
2023-01-02T10:46:00.958Z,100490.56
2023-01-02T10:51:06.437Z,100485.66
2023-01-02T10:56:20.451Z,100492.78
2023-01-02T11:01:22.855Z,100500.69
2023-01-02T11:06:38.798Z,100506.31
2023-01-02T11:11:58.401Z,100503.38
2023-01-02T11:17:11.896Z,100511.69
2023-01-02T11:22:16.911Z,100514.06
2023-01-02T11:27:18.621Z,100511.16
2023-01-02T11:32:27.796Z,100516.50
2023-01-02T11:37:29.901Z,100501.47
2023-01-02T11:43:02.757Z,100495.16
2023-01-02T11:48:14.798Z,100488.28
2023-01-02T11:53:26.494Z,100489.72
2023-01-02T11:58:45.464Z,100503.28
2023-01-02T12:03:47.553Z,100502.13
2023-01-02T12:09:05.361Z,100511.97
2023-01-02T12:14:23.398Z,100520.59
2023-01-02T12:19:38.584Z,100528.88
2023-01-02T12:25:11.768Z,100527.41
2023-01-02T12:30:19.668Z,100524.53
2023-01-02T12:35:47.610Z,100529.59
2023-01-02T12:40:57.768Z,100542.06
2023-01-02T12:46:33.460Z,100550.44
2023-01-02T12:52:07.369Z,100537.81
2023-01-02T12:57:41.172Z,100552.69
2023-01-02T13:03:01.151Z,100553.84
2023-01-02T13:08:15.034Z,100556.97
2023-01-02T13:13:17.038Z,100552.34
2023-01-02T13:19:00.723Z,100551.22
2023-01-02T13:24:03.444Z,100546.75
2023-01-02T13:29:08.183Z,100554.84
2023-01-02T13:34:15.416Z,100555.38
2023-01-02T13:39:28.144Z,100562.72
2023-01-02T13:44:36.077Z,100564.19
2023-01-02T13:49:37.546Z,100551.59
2023-01-02T13:54:38.933Z,100540.88
2023-01-02T14:00:01.428Z,100539.19
2023-01-02T14:05:41.505Z,100551.91
2023-01-02T14:10:45.363Z,100567.34
2023-01-02T14:16:24.789Z,100572.72
2023-01-02T14:21:33.135Z,100581.19
2023-01-02T14:26:37.799Z,100576.00
2023-01-02T14:31:39.625Z,100574.00
2023-01-02T14:36:43.177Z,100580.22
2023-01-02T14:42:09.404Z,100591.69
2023-01-02T14:47:19.701Z,100600.06
2023-01-02T14:52:28.722Z,100623.09
2023-01-02T14:57:33.976Z,100629.50
2023-01-02T15:02:41.442Z,100599.38
2023-01-02T15:07:52.828Z,100581.03
2023-01-02T15:13:08.861Z,100606.28
2023-01-02T15:18:29.311Z,100628.38
2023-01-02T15:23:30.773Z,100641.59
2023-01-02T15:28:33.787Z,100641.22
2023-01-02T15:33:35.223Z,100657.25
2023-01-02T15:38:36.681Z,100670.78
2023-01-02T15:43:57.957Z,100676.38
2023-01-02T15:49:00.444Z,100682.97
2023-01-02T15:54:03.614Z,100717.31
2023-01-02T15:59:45.075Z,100740.16
2023-01-02T16:04:46.434Z,100754.50
2023-01-02T16:09:55.537Z,100756.00
2023-01-02T16:14:59.177Z,100753.22
2023-01-02T16:20:11.587Z,100757.63
2023-01-02T16:25:18.688Z,100760.88
2023-01-02T16:30:32.627Z,100749.06
2023-01-02T16:35:34.430Z,100727.31
2023-01-02T16:40:59.966Z,100721.84
2023-01-02T16:46:04.393Z,100740.78
2023-01-02T16:51:06.054Z,100720.66
2023-01-02T16:56:10.996Z,100764.03
2023-01-02T17:01:14.674Z,100784.13
2023-01-02T17:06:18.631Z,100788.50
2023-01-02T17:11:23.018Z,100801.81
2023-01-02T17:16:24.395Z,100826.25
2023-01-02T17:21:32.356Z,100836.91
2023-01-02T17:26:34.478Z,100858.19
2023-01-02T17:31:35.891Z,100860.69
2023-01-02T17:36:37.501Z,100871.50
2023-01-02T17:41:38.860Z,100889.00
2023-01-02T17:52:01.506Z,100895.91
2023-01-02T17:57:02.925Z,100914.25
2023-01-02T18:02:06.621Z,100908.69
2023-01-02T18:07:08.166Z,100918.28
2023-01-02T18:12:11.001Z,100920.97
2023-01-02T18:17:30.016Z,100939.81
2023-01-02T18:22:31.873Z,100938.84
2023-01-02T18:27:34.828Z,100951.78
2023-01-02T18:32:38.617Z,100968.78
2023-01-02T18:37:41.368Z,100971.31
2023-01-02T18:42:45.670Z,100976.31
2023-01-02T18:47:51.564Z,100985.59
2023-01-02T18:52:52.988Z,100993.66
2023-01-02T18:58:44.144Z,101007.59
2023-01-02T19:03:47.860Z,101007.59
2023-01-02T19:08:49.355Z,101021.25
2023-01-02T19:13:56.823Z,101025.59
2023-01-02T19:19:00.039Z,101040.22
2023-01-02T19:24:04.493Z,101046.25
2023-01-02T19:29:11.804Z,101048.44
2023-01-02T19:34:40.894Z,101064.56
2023-01-02T19:39:48.432Z,101070.63
2023-01-02T19:44:53.943Z,101070.25
2023-01-02T19:49:56.008Z,101081.03
2023-01-02T19:54:57.766Z,101091.94
2023-01-02T19:59:59.122Z,101098.34
2023-01-02T20:05:00.536Z,101112.97
2023-01-02T20:10:02.045Z,101111.91
2023-01-02T20:15:08.681Z,101117.50
2023-01-02T20:20:14.862Z,101118.25
2023-01-02T20:25:18.963Z,101121.56
2023-01-02T20:30:24.477Z,101131.09
2023-01-02T20:35:26.364Z,101146.84
2023-01-02T20:40:28.017Z,101146.16
2023-01-02T20:45:29.375Z,101156.41
2023-01-02T20:50:30.701Z,101166.59
2023-01-02T20:55:32.674Z,101163.66
2023-01-02T21:00:34.468Z,101176.81
2023-01-02T21:05:36.628Z,101182.22
2023-01-02T21:10:38.025Z,101180.84
2023-01-02T21:15:42.072Z,101187.59
2023-01-02T21:20:46.723Z,101196.66
2023-01-02T21:25:48.778Z,101193.28
2023-01-02T21:30:50.898Z,101205.44
2023-01-02T21:35:54.756Z,101205.44
2023-01-02T21:41:17.263Z,101220.13
2023-01-02T21:46:18.753Z,101225.28
2023-01-02T21:51:20.179Z,101237.25
2023-01-02T21:56:21.535Z,101247.72
2023-01-02T22:01:23.017Z,101260.78
2023-01-02T22:06:25.628Z,101268.72
2023-01-02T22:11:45.767Z,101272.44
2023-01-02T22:16:47.204Z,101290.97
2023-01-02T22:21:48.712Z,101301.16
2023-01-02T22:26:51.703Z,101295.50
2023-01-02T22:31:54.935Z,101301.03
2023-01-02T22:36:56.462Z,101307.94
2023-01-02T22:42:57.800Z,101312.44
2023-01-02T22:47:39.743Z,101328.94
2023-01-02T22:52:41.140Z,101335.69
2023-01-02T22:57:47.517Z,101334.00
2023-01-02T23:02:52.770Z,101342.53
2023-01-02T23:07:54.196Z,101347.03
2023-01-02T23:12:55.727Z,101353.97
2023-01-02T23:18:15.599Z,101357.72
2023-01-02T23:23:16.911Z,101369.03
2023-01-02T23:28:39.315Z,101373.56
2023-01-02T23:33:39.626Z,101375.41
2023-01-02T23:38:41.019Z,101374.84
2023-01-02T23:43:42.348Z,101365.50
2023-01-02T23:48:43.811Z,101358.75
2023-01-02T23:53:45.173Z,101375.00
2023-01-02T23:58:47.972Z,101372.44
